createdAt,value
2022-12-07T00:01:18.180Z,16.90
2022-12-07T00:03:47.138Z,11.25
2022-12-07T00:06:16.358Z,17.95
2022-12-07T00:08:43.812Z,10.40
2022-12-07T00:11:19.881Z,14.40
2022-12-07T00:13:47.495Z,10.88
2022-12-07T00:16:17.189Z,12.18
2022-12-07T00:18:45.104Z,16.13
2022-12-07T00:21:19.339Z,14.00
2022-12-07T00:23:47.869Z,11.98
2022-12-07T00:26:24.132Z,14.45
2022-12-07T00:28:57.033Z,8.82
2022-12-07T00:31:27.577Z,16.70
2022-12-07T00:33:54.846Z,16.25
2022-12-07T00:36:26.988Z,13.90
2022-12-07T00:38:55.963Z,12.40
2022-12-07T00:41:25.121Z,12.30
2022-12-07T00:43:52.979Z,11.05
2022-12-07T00:46:21.456Z,14.52
2022-12-07T00:48:49.528Z,14.88
2022-12-07T00:51:18.807Z,13.98
2022-12-07T00:53:46.282Z,15.82
2022-12-07T00:56:15.706Z,12.77
2022-12-07T00:58:42.885Z,12.00
2022-12-07T01:01:11.978Z,14.80
2022-12-07T01:03:39.560Z,14.40
2022-12-07T01:06:06.942Z,14.38
2022-12-07T01:08:34.553Z,18.05
2022-12-07T01:11:04.540Z,15.65
2022-12-07T01:13:33.182Z,19.88
2022-12-07T01:16:02.236Z,16.15
2022-12-07T01:18:30.811Z,15.13
2022-12-07T01:21:07.798Z,19.98
2022-12-07T01:23:36.806Z,14.25
2022-12-07T01:26:08.317Z,17.80
2022-12-07T01:28:35.779Z,17.88
2022-12-07T01:31:16.187Z,15.18
2022-12-07T01:33:46.159Z,16.25
2022-12-07T01:36:17.944Z,20.80
2022-12-07T01:38:46.026Z,16.58
2022-12-07T01:41:14.003Z,14.77
2022-12-07T01:44:14.146Z,20.23
2022-12-07T01:46:42.974Z,17.55
2022-12-07T01:49:15.620Z,21.30
2022-12-07T01:51:44.460Z,24.88
2022-12-07T01:54:13.980Z,16.58
2022-12-07T01:56:45.024Z,17.13
2022-12-07T01:59:12.302Z,19.85
2022-12-07T02:01:39.534Z,16.83
2022-12-07T02:04:07.494Z,15.90
2022-12-07T02:06:36.533Z,15.88
2022-12-07T02:09:04.024Z,13.32
2022-12-07T02:11:31.642Z,12.27
2022-12-07T02:13:59.807Z,13.25
2022-12-07T02:16:32.145Z,14.10
2022-12-07T02:19:33.663Z,17.70
2022-12-07T02:22:38.391Z,15.40
2022-12-07T02:25:40.823Z,11.98
2022-12-07T02:28:21.496Z,11.70
2022-12-07T02:30:51.412Z,16.15
2022-12-07T02:33:51.163Z,12.82
2022-12-07T02:36:34.638Z,10.02
2022-12-07T02:39:32.462Z,9.98
2022-12-07T02:42:08.843Z,11.52
2022-12-07T02:44:36.533Z,10.70
2022-12-07T02:47:08.319Z,11.82
2022-12-07T02:49:37.705Z,11.70
2022-12-07T02:52:05.618Z,9.60
2022-12-07T02:54:32.791Z,12.02
2022-12-07T02:57:08.939Z,19.30
2022-12-07T03:00:11.354Z,15.95
2022-12-07T03:02:50.305Z,15.20
2022-12-07T03:05:29.811Z,10.68
2022-12-07T03:08:35.933Z,12.98
2022-12-07T03:11:07.597Z,12.50
2022-12-07T03:14:10.370Z,14.80
2022-12-07T03:16:44.246Z,17.38
2022-12-07T03:19:18.699Z,14.88
2022-12-07T03:22:06.456Z,18.45
2022-12-07T03:25:01.533Z,14.40
2022-12-07T03:27:33.139Z,12.70
2022-12-07T03:30:07.111Z,12.55
2022-12-07T03:32:59.598Z,17.25
2022-12-07T03:38:19.102Z,19.02
2022-12-07T03:41:07.175Z,18.70
2022-12-07T03:43:34.599Z,17.83
2022-12-07T03:46:16.986Z,14.20
2022-12-07T03:51:40.053Z,15.88
2022-12-07T03:54:13.621Z,15.13
2022-12-07T03:56:43.148Z,20.02
2022-12-07T03:59:12.233Z,15.23
2022-12-07T04:01:39.372Z,14.55
2022-12-07T04:04:06.424Z,13.23
2022-12-07T04:06:33.531Z,13.40
2022-12-07T04:09:00.761Z,15.52
2022-12-07T04:11:27.854Z,15.38
2022-12-07T04:14:13.524Z,15.88
2022-12-07T04:16:44.525Z,16.00
2022-12-07T04:19:12.250Z,14.57
2022-12-07T04:21:39.496Z,15.98
2022-12-07T04:24:06.881Z,18.13
2022-12-07T04:26:34.138Z,13.63
2022-12-07T04:29:06.152Z,16.20
2022-12-07T04:31:34.936Z,12.80
2022-12-07T04:34:02.337Z,18.25
2022-12-07T04:36:29.506Z,18.10
2022-12-07T04:38:56.997Z,16.75
2022-12-07T04:41:28.648Z,15.25
2022-12-07T04:44:02.369Z,16.67
2022-12-07T04:46:31.521Z,14.10
2022-12-07T04:48:59.096Z,21.90
2022-12-07T04:51:28.534Z,17.75
2022-12-07T04:53:56.831Z,16.05
2022-12-07T04:56:25.674Z,15.45
2022-12-07T04:58:54.816Z,18.48
2022-12-07T05:01:22.941Z,18.38
2022-12-07T05:03:50.294Z,15.63
2022-12-07T05:06:17.854Z,12.93
2022-12-07T05:08:45.972Z,16.30
2022-12-07T05:11:34.076Z,19.23
2022-12-07T05:14:02.046Z,12.48
2022-12-07T05:16:29.518Z,14.93
2022-12-07T05:18:56.900Z,11.63
2022-12-07T05:21:24.179Z,12.35
2022-12-07T05:23:51.412Z,14.35
2022-12-07T05:26:19.032Z,13.48
2022-12-07T05:28:46.166Z,12.75
2022-12-07T05:31:13.329Z,11.27
2022-12-07T05:33:40.478Z,13.63
2022-12-07T05:36:08.413Z,13.27
2022-12-07T05:38:35.827Z,12.43
2022-12-07T05:41:07.785Z,12.23
2022-12-07T05:43:34.959Z,11.38
2022-12-07T05:46:02.235Z,10.73
2022-12-07T05:48:29.485Z,10.82
2022-12-07T05:50:56.641Z,8.05
2022-12-07T05:53:23.774Z,11.57
2022-12-07T05:55:50.955Z,13.35
2022-12-07T05:58:36.840Z,10.40
2022-12-07T06:01:04.125Z,15.13
2022-12-07T06:03:31.249Z,14.68
2022-12-07T06:05:58.390Z,11.18
2022-12-07T06:08:25.527Z,13.25
2022-12-07T06:11:12.672Z,9.93
2022-12-07T06:13:43.817Z,8.65
2022-12-07T06:16:14.393Z,10.93
2022-12-07T06:18:41.642Z,9.57
2022-12-07T06:21:08.804Z,11.18
2022-12-07T06:23:35.937Z,18.77
2022-12-07T06:26:03.095Z,8.88
2022-12-07T06:28:30.294Z,12.15
2022-12-07T06:31:01.656Z,7.15
2022-12-07T06:33:29.586Z,11.88
2022-12-07T06:35:57.128Z,11.18
2022-12-07T06:38:24.500Z,9.52
2022-12-07T06:40:51.666Z,12.68
2022-12-07T06:43:18.827Z,10.38
2022-12-07T06:45:46.182Z,8.77
2022-12-07T06:48:13.308Z,9.63
2022-12-07T06:50:40.644Z,15.38
2022-12-07T06:53:09.130Z,11.68
2022-12-07T06:55:36.224Z,10.02
2022-12-07T06:58:03.590Z,8.10
2022-12-07T07:00:30.969Z,7.60
2022-12-07T07:02:58.309Z,10.65
2022-12-07T07:05:25.421Z,12.38
2022-12-07T07:08:20.958Z,10.10
2022-12-07T07:10:40.487Z,12.68
2022-12-07T07:13:07.824Z,11.25
2022-12-07T07:15:35.706Z,11.05
2022-12-07T07:18:07.706Z,13.52
2022-12-07T07:20:35.669Z,9.45
2022-12-07T07:23:03.059Z,11.43
2022-12-07T07:25:30.541Z,9.57
2022-12-07T07:27:57.685Z,11.85
2022-12-07T07:30:25.277Z,9.32
2022-12-07T07:32:52.500Z,11.38
2022-12-07T07:35:20.213Z,14.43
2022-12-07T07:37:47.406Z,12.95
2022-12-07T07:40:14.607Z,11.05
2022-12-07T07:42:41.765Z,11.95
2022-12-07T07:45:09.619Z,11.85
2022-12-07T07:47:37.003Z,12.32
2022-12-07T07:50:04.734Z,14.50
2022-12-07T07:52:32.601Z,10.23
2022-12-07T07:54:59.938Z,13.35
2022-12-07T07:57:27.183Z,12.30
2022-12-07T07:59:54.386Z,16.73
2022-12-07T08:02:21.983Z,12.10
2022-12-07T08:04:49.337Z,10.50
2022-12-07T08:07:16.794Z,12.80
2022-12-07T08:09:43.946Z,7.95
2022-12-07T08:12:11.175Z,10.38
2022-12-07T08:14:38.387Z,10.38
2022-12-07T08:17:05.614Z,22.02
2022-12-07T08:19:32.809Z,12.23
2022-12-07T08:22:00.148Z,17.52
2022-12-07T08:24:27.467Z,13.52
2022-12-07T08:26:54.784Z,14.40
2022-12-07T08:29:22.165Z,12.93
2022-12-07T08:31:49.312Z,12.88
2022-12-07T08:34:16.486Z,14.43
2022-12-07T08:36:43.691Z,9.85
2022-12-07T08:41:58.166Z,15.38
2022-12-07T08:44:25.412Z,14.15
2022-12-07T08:46:59.793Z,12.65
2022-12-07T08:49:35.536Z,16.65
2022-12-07T08:52:05.224Z,11.57
2022-12-07T08:54:34.560Z,11.35
2022-12-07T08:57:01.784Z,9.40
2022-12-07T08:59:30.138Z,13.90
2022-12-07T09:01:58.109Z,14.45
2022-12-07T09:04:25.359Z,12.57
2022-12-07T09:06:52.566Z,11.68
2022-12-07T09:09:19.707Z,12.10
2022-12-07T09:11:47.220Z,9.25
2022-12-07T09:14:14.834Z,11.25
2022-12-07T09:16:41.975Z,14.75
2022-12-07T09:19:09.435Z,12.77
2022-12-07T09:21:36.773Z,8.38
2022-12-07T09:24:04.083Z,11.43
2022-12-07T09:26:31.387Z,7.82
2022-12-07T09:28:58.527Z,10.13
2022-12-07T09:31:27.477Z,13.25
2022-12-07T09:33:59.993Z,11.70
2022-12-07T09:36:28.310Z,9.43
2022-12-07T09:38:56.104Z,6.72
2022-12-07T09:41:25.299Z,9.05
2022-12-07T09:43:53.471Z,13.57
2022-12-07T09:46:22.022Z,12.02
2022-12-07T09:48:51.058Z,11.57
2022-12-07T09:51:24.992Z,11.70
2022-12-07T09:53:54.784Z,12.52
2022-12-07T09:56:23.996Z,15.70
2022-12-07T09:58:56.682Z,10.48
2022-12-07T10:01:23.988Z,14.70
2022-12-07T10:04:00.031Z,13.27
2022-12-07T10:06:27.130Z,13.57
2022-12-07T10:08:54.236Z,11.00
2022-12-07T10:11:22.210Z,13.93
2022-12-07T10:13:54.994Z,11.15
2022-12-07T10:16:25.525Z,12.20
2022-12-07T10:18:53.451Z,9.65
2022-12-07T10:21:25.100Z,15.50
2022-12-07T10:24:17.956Z,7.75
2022-12-07T10:26:47.882Z,10.63
2022-12-07T10:29:39.402Z,11.50
2022-12-07T10:32:16.996Z,9.85
2022-12-07T10:34:48.767Z,13.45
2022-12-07T10:37:21.245Z,10.18
2022-12-07T10:39:57.555Z,14.18
2022-12-07T10:42:30.130Z,13.85
2022-12-07T10:45:17.186Z,13.25
2022-12-07T10:48:09.293Z,12.85
2022-12-07T10:51:07.520Z,13.43
2022-12-07T10:53:44.414Z,11.57
2022-12-07T10:56:52.696Z,13.90
2022-12-07T10:59:39.697Z,16.40
2022-12-07T11:02:16.285Z,15.68
2022-12-07T11:05:24.892Z,15.05
2022-12-07T11:08:13.136Z,17.20
2022-12-07T11:11:04.181Z,14.38
2022-12-07T11:13:53.728Z,13.50
2022-12-07T11:16:40.544Z,12.70
2022-12-07T11:19:28.865Z,14.65
2022-12-07T11:22:05.200Z,12.30
2022-12-07T11:24:41.935Z,12.02
2022-12-07T11:27:36.524Z,14.82
2022-12-07T11:30:14.101Z,13.35
2022-12-07T11:32:58.528Z,14.07
2022-12-07T11:35:57.046Z,13.73
2022-12-07T11:38:38.497Z,13.68
2022-12-07T11:41:17.077Z,22.13
2022-12-07T11:43:53.594Z,13.45
2022-12-07T11:46:25.529Z,13.77
2022-12-07T11:49:06.432Z,16.17
2022-12-07T11:51:38.982Z,12.85
2022-12-07T11:54:24.393Z,13.77
2022-12-07T11:56:55.033Z,11.82
2022-12-07T11:59:40.948Z,14.10
2022-12-07T12:02:25.418Z,14.07
2022-12-07T12:04:59.596Z,16.05
2022-12-07T12:10:53.154Z,14.43
2022-12-07T12:16:49.601Z,15.45
2022-12-07T12:19:29.075Z,12.13
2022-12-07T12:22:11.684Z,14.68
2022-12-07T12:24:41.165Z,16.02
2022-12-07T12:27:16.633Z,11.27
2022-12-07T12:29:45.089Z,15.07
2022-12-07T12:32:19.723Z,12.35
2022-12-07T12:34:59.447Z,12.75
2022-12-07T12:37:35.453Z,14.30
2022-12-07T12:40:17.817Z,9.93
2022-12-07T12:45:25.564Z,13.25
2022-12-07T12:47:59.838Z,10.35
2022-12-07T12:50:35.306Z,9.57
2022-12-07T12:53:15.431Z,10.05
2022-12-07T12:55:42.527Z,14.60
2022-12-07T12:58:18.820Z,14.18
2022-12-07T13:01:10.580Z,8.43
2022-12-07T13:03:37.749Z,11.15
2022-12-07T13:06:28.165Z,10.73
2022-12-07T13:08:59.227Z,10.70
2022-12-07T13:11:42.095Z,9.30
2022-12-07T13:14:41.426Z,14.63
2022-12-07T13:17:36.249Z,10.95
2022-12-07T13:20:04.373Z,10.40
2022-12-07T13:22:31.563Z,8.75
2022-12-07T13:25:21.541Z,10.10
2022-12-07T13:28:04.605Z,7.78
2022-12-07T13:30:33.034Z,12.05
2022-12-07T13:33:01.285Z,16.45
2022-12-07T13:35:38.528Z,14.60
2022-12-07T13:38:20.025Z,12.70
2022-12-07T13:41:05.705Z,12.15
2022-12-07T13:43:43.451Z,13.40
2022-12-07T13:46:18.098Z,14.15
2022-12-07T13:48:48.964Z,10.70
2022-12-07T13:51:22.816Z,11.82
2022-12-07T13:53:56.698Z,8.77
2022-12-07T13:56:45.297Z,11.00
2022-12-07T13:59:21.009Z,18.92
2022-12-07T14:01:50.508Z,14.23
2022-12-07T14:04:38.434Z,11.80
2022-12-07T14:07:29.288Z,9.15
2022-12-07T14:10:06.478Z,14.00
2022-12-07T14:12:36.883Z,20.75
2022-12-07T14:15:05.265Z,8.30
2022-12-07T14:17:33.143Z,8.02
2022-12-07T14:20:01.820Z,11.88
2022-12-07T14:22:38.275Z,8.82
2022-12-07T14:25:14.549Z,9.27
2022-12-07T14:28:11.924Z,8.70
2022-12-07T14:30:39.121Z,13.25
2022-12-07T14:33:07.038Z,11.13
2022-12-07T14:35:34.274Z,12.82
2022-12-07T14:38:01.437Z,9.80
2022-12-07T14:40:31.004Z,9.70
2022-12-07T14:43:10.169Z,9.38
2022-12-07T14:45:37.329Z,9.18
2022-12-07T14:53:55.178Z,9.45
2022-12-07T14:56:26.070Z,10.40
2022-12-07T14:58:53.305Z,8.73
2022-12-07T15:01:20.449Z,9.70
2022-12-07T15:03:47.717Z,8.43
2022-12-07T15:06:18.705Z,7.90
2022-12-07T15:08:46.328Z,6.95
2022-12-07T15:11:18.275Z,9.40
2022-12-07T15:14:04.246Z,9.82
2022-12-07T15:16:52.322Z,12.48
2022-12-07T15:19:28.319Z,9.65
2022-12-07T15:21:57.077Z,10.38
2022-12-07T15:24:25.324Z,8.13
2022-12-07T15:26:53.497Z,10.65
2022-12-07T15:29:23.170Z,11.85
2022-12-07T15:31:56.937Z,12.25
2022-12-07T15:34:34.784Z,9.52
2022-12-07T15:37:07.600Z,9.30
2022-12-07T15:39:34.965Z,8.85
2022-12-07T15:42:02.540Z,15.25
2022-12-07T15:44:48.361Z,10.63
2022-12-07T15:47:15.593Z,8.88
2022-12-07T15:49:42.867Z,11.43
2022-12-07T15:52:10.225Z,10.88
2022-12-07T15:54:37.578Z,8.60
2022-12-07T15:57:05.069Z,10.43
2022-12-07T15:59:32.731Z,13.02
2022-12-07T16:02:00.440Z,9.15
2022-12-07T16:04:30.290Z,11.50
2022-12-07T16:06:58.046Z,11.82
2022-12-07T16:09:25.217Z,12.55
2022-12-07T16:11:53.285Z,10.10
2022-12-07T16:14:21.307Z,8.20
2022-12-07T16:16:49.248Z,12.98
2022-12-07T16:19:16.768Z,8.85
2022-12-07T16:21:43.944Z,16.15
2022-12-07T16:24:16.170Z,29.25
2022-12-07T16:26:49.572Z,43.85
2022-12-07T16:29:19.108Z,33.78
2022-12-07T16:31:47.008Z,25.30
2022-12-07T16:34:14.198Z,15.70
2022-12-07T16:37:03.278Z,13.10
2022-12-07T16:39:28.542Z,13.18
2022-12-07T16:41:55.762Z,12.70
2022-12-07T16:44:22.927Z,12.63
2022-12-07T16:46:50.294Z,11.25
2022-12-07T16:49:18.447Z,14.25
2022-12-07T16:51:45.949Z,15.50
2022-12-07T16:54:13.818Z,9.68
2022-12-07T16:56:41.184Z,12.02
2022-12-07T16:59:08.953Z,11.07
2022-12-07T17:01:37.134Z,11.25
2022-12-07T17:04:05.611Z,9.85
2022-12-07T17:06:33.083Z,14.63
2022-12-07T17:09:00.456Z,12.90
2022-12-07T17:11:29.919Z,15.68
2022-12-07T17:14:15.347Z,8.85
2022-12-07T17:16:42.586Z,13.10
2022-12-07T17:19:12.890Z,13.57
2022-12-07T17:21:40.851Z,12.93
2022-12-07T17:24:09.998Z,11.25
2022-12-07T17:26:37.973Z,12.65
2022-12-07T17:29:07.122Z,16.80
2022-12-07T17:31:34.883Z,11.75
2022-12-07T17:34:02.667Z,16.10
2022-12-07T17:36:32.104Z,15.90
2022-12-07T17:38:59.353Z,14.75
2022-12-07T17:41:47.507Z,14.75
2022-12-07T17:44:17.381Z,16.40
2022-12-07T17:46:45.929Z,12.27
2022-12-07T17:49:13.155Z,10.30
2022-12-07T17:51:58.988Z,10.93
2022-12-07T17:54:26.273Z,9.93
2022-12-07T17:56:53.443Z,10.23
2022-12-07T17:59:20.594Z,13.15
2022-12-07T18:01:48.049Z,11.38
2022-12-07T18:04:15.411Z,9.52
2022-12-07T18:06:46.243Z,9.95
2022-12-07T18:09:16.105Z,10.60
2022-12-07T18:11:43.419Z,18.95
2022-12-07T18:14:17.033Z,17.08
2022-12-07T18:16:44.447Z,19.55
2022-12-07T18:19:14.399Z,13.02
2022-12-07T18:21:41.831Z,22.88
2022-12-07T18:24:12.043Z,13.07
2022-12-07T18:26:39.967Z,16.13
2022-12-07T18:29:08.130Z,16.30
2022-12-07T18:31:36.440Z,20.88
2022-12-07T18:34:14.569Z,17.55
2022-12-07T18:36:46.005Z,16.13
2022-12-07T18:39:14.642Z,14.82
2022-12-07T18:41:42.949Z,20.30
2022-12-07T18:44:11.116Z,17.08
2022-12-07T18:46:38.914Z,13.85
2022-12-07T18:49:06.470Z,15.23
2022-12-07T18:51:33.589Z,16.40
2022-12-07T18:54:02.262Z,11.77
2022-12-07T18:56:29.563Z,12.75
2022-12-07T18:59:18.007Z,16.90
2022-12-07T19:01:49.130Z,11.40
2022-12-07T19:04:17.380Z,14.40
2022-12-07T19:06:46.371Z,9.80
2022-12-07T19:09:14.003Z,15.82
2022-12-07T19:11:50.075Z,15.88
2022-12-07T19:14:19.141Z,15.45
2022-12-07T19:16:49.749Z,13.55
2022-12-07T19:19:22.093Z,12.68
2022-12-07T19:21:50.170Z,12.85
2022-12-07T19:24:23.047Z,14.57
2022-12-07T19:26:51.882Z,10.63
2022-12-07T19:29:19.735Z,12.80
2022-12-07T19:31:47.229Z,14.45
2022-12-07T19:34:16.633Z,14.45
2022-12-07T19:36:44.906Z,14.10
2022-12-07T19:39:15.175Z,13.02
2022-12-07T19:41:46.505Z,18.70
2022-12-07T19:44:15.669Z,15.43
2022-12-07T19:46:46.668Z,18.15
2022-12-07T19:49:17.711Z,29.73
2022-12-07T19:51:47.251Z,25.75
2022-12-07T19:54:17.229Z,25.77
2022-12-07T19:56:45.477Z,20.20
2022-12-07T19:59:14.726Z,30.38
2022-12-07T20:01:42.871Z,84.25
2022-12-07T20:04:32.902Z,33.83
2022-12-07T20:07:01.169Z,23.73
2022-12-07T20:09:28.561Z,17.98
2022-12-07T20:12:14.595Z,19.40
2022-12-07T20:14:41.814Z,18.05
2022-12-07T20:17:09.157Z,17.25
2022-12-07T20:19:37.758Z,17.70
2022-12-07T20:22:05.515Z,17.50
2022-12-07T20:24:34.638Z,14.60
2022-12-07T20:27:02.396Z,20.92
2022-12-07T20:29:29.601Z,15.27
2022-12-07T20:31:57.972Z,16.40
2022-12-07T20:34:26.342Z,12.57
2022-12-07T20:36:54.862Z,17.40
2022-12-07T20:39:23.682Z,12.88
2022-12-07T20:42:10.517Z,16.88
2022-12-07T20:44:37.991Z,14.52
2022-12-07T20:47:06.410Z,16.00
2022-12-07T20:49:33.970Z,17.05
2022-12-07T20:52:01.250Z,15.15
2022-12-07T20:54:28.477Z,23.55
2022-12-07T20:56:55.755Z,20.58
2022-12-07T20:59:23.137Z,35.70
2022-12-07T21:01:50.676Z,30.05
2022-12-07T21:04:18.369Z,30.23
2022-12-07T21:06:45.956Z,18.95
2022-12-07T21:09:13.617Z,23.63
2022-12-07T21:11:41.114Z,33.38
2022-12-07T21:14:09.027Z,46.30
2022-12-07T21:16:36.692Z,27.98
2022-12-07T21:19:04.754Z,34.00
2022-12-07T21:21:33.033Z,32.80
2022-12-07T21:24:02.724Z,25.90
2022-12-07T21:26:35.534Z,45.75
2022-12-07T21:31:31.260Z,45.53
2022-12-07T21:33:58.450Z,51.67
2022-12-07T21:36:26.719Z,34.65
2022-12-07T21:38:54.290Z,33.42
2022-12-07T21:41:27.503Z,20.55
2022-12-07T21:43:54.904Z,28.83
2022-12-07T21:46:29.595Z,28.90
2022-12-07T21:49:03.501Z,26.85
2022-12-07T21:51:31.272Z,21.05
2022-12-07T21:54:00.736Z,18.45
2022-12-07T21:56:33.460Z,117.75
2022-12-07T21:59:04.195Z,188.63
2022-12-07T22:01:37.702Z,59.72
2022-12-07T22:04:14.748Z,46.42
2022-12-07T22:06:41.887Z,34.75
2022-12-07T22:09:09.545Z,32.17
2022-12-07T22:11:37.145Z,29.98
2022-12-07T22:14:24.147Z,27.38
2022-12-07T22:16:52.532Z,27.95
2022-12-07T22:19:19.895Z,30.85
2022-12-07T22:21:47.213Z,26.30
2022-12-07T22:24:14.829Z,28.92
2022-12-07T22:26:43.412Z,30.27
2022-12-07T22:29:11.055Z,24.42
2022-12-07T22:31:38.795Z,32.55
2022-12-07T22:34:06.002Z,28.25
2022-12-07T22:36:33.118Z,24.23
2022-12-07T22:39:01.994Z,17.00
2022-12-07T22:41:31.271Z,23.38
2022-12-07T22:44:00.264Z,31.77
2022-12-07T22:46:28.040Z,30.20
2022-12-07T22:48:55.440Z,34.03
2022-12-07T22:51:32.634Z,39.20
2022-12-07T22:54:01.265Z,23.30
2022-12-07T22:56:30.830Z,23.55
2022-12-07T22:58:58.317Z,20.55
2022-12-07T23:01:25.411Z,22.08
2022-12-07T23:03:53.414Z,16.00
2022-12-07T23:06:22.047Z,15.38
2022-12-07T23:08:50.089Z,16.38
2022-12-07T23:11:40.794Z,16.30
2022-12-07T23:14:24.832Z,20.05
2022-12-07T23:16:52.019Z,17.73
2022-12-07T23:19:19.331Z,16.08
2022-12-07T23:21:46.599Z,15.57
2022-12-07T23:24:15.297Z,18.17
2022-12-07T23:26:43.408Z,16.55
2022-12-07T23:29:15.706Z,15.20
2022-12-07T23:31:44.470Z,16.30
2022-12-07T23:34:11.720Z,18.15
2022-12-07T23:36:39.336Z,24.33
2022-12-07T23:39:07.303Z,19.00
2022-12-07T23:41:34.475Z,17.20
2022-12-07T23:44:02.009Z,19.92
2022-12-07T23:46:31.878Z,17.30
2022-12-07T23:49:01.385Z,19.10
2022-12-07T23:51:28.792Z,16.95
2022-12-07T23:53:57.719Z,17.48
2022-12-07T23:56:30.756Z,38.63
2022-12-07T23:58:58.805Z,31.13
